Time;durP1;ratioP1;P1;durP2;ratioP2;P2;SDS_P1;SDS_P2;PMS_P1;PMS_P2;Temp;Humidity;BMP_temperature;BMP_pressure;BME280_temperature;BME280_humidity;BME280_pressure;Samples;Min_cycle;Max_cycle;Signal;HPM_P1;HPM_P2
2021/05/27 00:00:10;;;;;;;14.48;4.25;;;11.00;93.40;;;;;;5053413;28;20049;-84
2021/05/27 00:02:36;;;;;;;12.10;4.38;;;11.00;93.40;;;;;;5053071;28;20185;-83
2021/05/27 00:05:06;;;;;;;14.13;4.38;;;11.00;93.40;;;;;;5053210;28;20513;-84
2021/05/27 00:07:32;;;;;;;10.55;4.25;;;11.00;93.80;;;;;;5052458;28;20145;-83
2021/05/27 00:09:58;;;;;;;11.43;4.28;;;11.00;93.50;;;;;;5053522;28;20485;-84
2021/05/27 00:12:24;;;;;;;9.18;3.72;;;11.00;93.50;;;;;;5053579;28;20136;-83
2021/05/27 00:14:50;;;;;;;12.43;4.22;;;11.00;93.50;;;;;;5052601;28;20064;-84
2021/05/27 00:17:19;;;;;;;9.02;3.47;;;11.00;93.40;;;;;;5052678;28;20056;-83
2021/05/27 00:19:45;;;;;;;10.27;4.03;;;10.90;93.40;;;;;;5053455;28;20053;-84
2021/05/27 00:22:11;;;;;;;10.35;3.72;;;10.90;93.40;;;;;;5051987;28;20538;-84
2021/05/27 00:24:37;;;;;;;7.97;3.70;;;11.00;93.40;;;;;;5053573;28;20128;-84
2021/05/27 00:27:04;;;;;;;11.30;3.80;;;11.00;93.40;;;;;;5052710;28;20041;-83
2021/05/27 00:29:30;;;;;;;11.85;4.05;;;11.00;93.40;;;;;;5052567;28;20081;-84
2021/05/27 00:31:57;;;;;;;12.15;4.40;;;10.90;93.30;;;;;;5052807;28;20128;-84
2021/05/27 00:34:29;;;;;;;7.50;3.60;;;11.00;93.30;;;;;;5053155;28;20053;-84
2021/05/27 00:36:54;;;;;;;7.35;3.30;;;10.90;93.40;;;;;;5051553;28;20044;-85
2021/05/27 00:39:20;;;;;;;13.18;3.90;;;10.90;93.30;;;;;;5053131;28;20064;-84
2021/05/27 00:41:46;;;;;;;11.40;3.67;;;10.90;93.40;;;;;;5053125;28;20049;-84
2021/05/27 00:44:23;;;;;;;8.95;3.75;;;10.90;93.40;;;;;;5051794;28;20390;-84
2021/05/27 00:46:50;;;;;;;10.25;4.25;;;10.90;93.40;;;;;;5052640;28;20056;-84
2021/05/27 00:49:16;;;;;;;12.00;3.75;;;10.90;93.50;;;;;;5051963;28;20128;-85
2021/05/27 00:51:43;;;;;;;9.52;3.75;;;10.90;93.50;;;;;;5052159;28;20203;-84
2021/05/27 00:54:09;;;;;;;11.00;4.05;;;10.90;93.40;;;;;;5052377;28;20481;-85
2021/05/27 00:56:36;;;;;;;12.07;4.03;;;10.90;93.40;;;;;;5051448;28;20098;-84
2021/05/27 00:59:03;;;;;;;12.90;4.13;;;10.90;93.40;;;;;;5052367;28;20053;-85
2021/05/27 01:01:29;;;;;;;14.38;4.43;;;10.90;93.50;;;;;;5052655;28;20403;-85
2021/05/27 01:03:54;;;;;;;11.02;4.10;;;10.90;93.50;;;;;;5051767;28;20053;-84
2021/05/27 01:06:20;;;;;;;12.20;4.43;;;10.90;93.50;;;;;;5052873;28;20099;-85
2021/05/27 01:08:46;;;;;;;14.32;4.82;;;10.90;93.50;;;;;;5052588;28;20493;-84
2021/05/27 01:11:12;;;;;;;13.32;4.40;;;10.90;93.50;;;;;;5051442;28;20056;-85
2021/05/27 01:13:37;;;;;;;12.38;4.60;;;10.80;93.60;;;;;;5052316;28;20408;-84
2021/05/27 01:16:04;;;;;;;11.57;4.72;;;10.80;93.60;;;;;;5052021;28;20106;-84
2021/05/27 01:18:29;;;;;;;11.27;4.70;;;10.80;93.60;;;;;;5051307;28;20053;-85
2021/05/27 01:20:57;;;;;;;11.82;4.97;;;10.90;93.70;;;;;;5052218;28;20053;-85
2021/05/27 01:23:26;;;;;;;10.13;4.43;;;10.80;93.60;;;;;;5052471;28;20049;-85
2021/05/27 01:25:57;;;;;;;14.05;4.40;;;10.80;93.60;;;;;;5051251;28;20128;-85
2021/05/27 01:28:31;;;;;;;11.18;4.57;;;10.80;93.60;;;;;;5052336;28;20098;-84
2021/05/27 01:30:57;;;;;;;;;;;10.80;93.60;;;;;;5052588;28;20045;-84
2021/05/27 01:33:23;;;;;;;12.35;4.57;;;10.80;93.50;;;;;;5053218;28;19927;-84
2021/05/27 01:35:49;;;;;;;14.05;5.35;;;10.80;93.60;;;;;;5056281;28;20064;-84
2021/05/27 01:38:18;;;;;;;13.00;4.68;;;10.80;93.70;;;;;;5056203;28;20068;-84
2021/05/27 01:40:45;;;;;;;13.50;5.00;;;10.80;93.80;;;;;;5055451;28;20504;-84
2021/05/27 01:43:12;;;;;;;13.98;5.10;;;10.80;93.80;;;;;;5056392;28;20041;-84
2021/05/27 01:45:38;;;;;;;10.82;4.78;;;10.80;93.80;;;;;;5056439;28;20053;-84
2021/05/27 01:48:05;;;;;;;11.82;4.65;;;10.80;93.70;;;;;;5055095;28;20055;-83
2021/05/27 01:50:32;;;;;;;14.73;4.90;;;10.80;93.80;;;;;;5056200;28;20462;-83
2021/05/27 01:53:06;;;;;;;14.82;4.75;;;10.80;93.90;;;;;;5055101;28;20128;-83
2021/05/27 01:55:33;;;;;;;11.38;4.82;;;10.80;93.90;;;;;;5055550;28;20060;-83
2021/05/27 01:57:59;;;;;;;12.95;4.88;;;10.80;93.90;;;;;;5055930;28;20045;-83
2021/05/27 02:00:27;;;;;;;12.48;4.95;;;10.80;94.00;;;;;;5055242;28;20493;-83
2021/05/27 02:02:54;;;;;;;10.73;4.55;;;10.80;94.00;;;;;;5055474;28;20052;-84
2021/05/27 02:05:20;;;;;;;10.13;4.35;;;10.80;94.00;;;;;;5056008;28;20049;-83
2021/05/27 02:07:46;;;;;;;9.25;4.25;;;10.80;94.00;;;;;;5055173;28;20407;-83
2021/05/27 02:10:11;;;;;;;12.07;4.30;;;10.80;94.00;;;;;;5055761;28;20060;-82
2021/05/27 02:12:38;;;;;;;10.65;4.47;;;10.70;94.00;;;;;;5055882;28;20529;-83
2021/05/27 02:15:05;;;;;;;10.43;4.10;;;10.80;94.00;;;;;;5054535;28;20052;-83
2021/05/27 02:17:31;;;;;;;11.43;4.55;;;10.80;94.10;;;;;;5055616;28;20099;-83
2021/05/27 02:19:56;;;;;;;11.00;3.95;;;10.80;94.10;;;;;;5055480;28;20048;-83
2021/05/27 02:22:22;;;;;;;11.45;4.50;;;10.70;93.90;;;;;;5054856;28;20051;-84
2021/05/27 02:24:48;;;;;;;10.07;4.53;;;10.80;93.90;;;;;;5055617;28;20540;-83
2021/05/27 02:27:13;;;;;;;13.38;4.75;;;10.70;93.90;;;;;;5055383;28;20136;-83
2021/05/27 02:29:39;;;;;;;12.05;4.20;;;10.80;94.00;;;;;;5054844;28;20060;-83
2021/05/27 02:32:05;;;;;;;10.68;4.55;;;10.80;94.00;;;;;;5055154;28;20051;-83
2021/05/27 02:34:31;;;;;;;12.02;4.32;;;10.70;94.00;;;;;;5055172;28;20179;-82
2021/05/27 02:36:56;;;;;;;14.13;4.57;;;10.80;94.10;;;;;;5053863;28;20139;-82
2021/05/27 02:39:22;;;;;;;15.30;5.00;;;10.70;94.00;;;;;;5055166;28;20049;-83
2021/05/27 02:41:48;;;;;;;9.15;4.53;;;10.70;94.10;;;;;;5055067;28;20049;-83
2021/05/27 02:44:13;;;;;;;9.20;3.92;;;10.70;94.00;;;;;;5053126;28;20053;-82
2021/05/27 02:46:39;;;;;;;10.90;4.32;;;10.80;94.40;;;;;;5054655;28;20410;-82
2021/05/27 02:49:06;;;;;;;11.15;4.53;;;10.70;94.10;;;;;;5053879;28;20084;-83
2021/05/27 02:51:32;;;;;;;14.75;4.90;;;10.70;94.10;;;;;;5054715;28;20056;-83
2021/05/27 02:53:58;;;;;;;11.50;4.13;;;10.70;94.20;;;;;;5054468;28;20041;-82
2021/05/27 02:56:24;;;;;;;9.80;4.20;;;10.70;94.20;;;;;;5052994;28;21509;-83
2021/05/27 02:58:49;;;;;;;10.77;4.43;;;10.70;94.20;;;;;;5054710;28;20095;-82
2021/05/27 03:01:16;;;;;;;10.45;4.07;;;10.70;94.20;;;;;;5053729;28;20044;-83
2021/05/27 03:03:42;;;;;;;10.18;3.78;;;10.70;94.20;;;;;;5052970;28;20131;-82
2021/05/27 03:06:08;;;;;;;9.32;3.65;;;10.70;94.20;;;;;;5053953;28;20545;-82
2021/05/27 03:08:33;;;;;;;11.07;4.00;;;10.70;94.60;;;;;;5053742;28;20211;-82
2021/05/27 03:11:00;;;;;;;11.35;3.97;;;10.70;94.30;;;;;;5053394;28;20048;-81
2021/05/27 03:13:25;;;;;;;9.10;3.50;;;10.70;94.30;;;;;;5054072;28;20409;-82
2021/05/27 03:15:52;;;;;;;8.90;3.60;;;10.70;94.40;;;;;;5053753;28;20049;-82
2021/05/27 03:18:18;;;;;;;8.93;3.58;;;10.70;94.40;;;;;;5050731;28;20048;-82
2021/05/27 03:20:44;;;;;;;8.30;3.03;;;10.70;94.40;;;;;;5054060;28;20489;-81
2021/05/27 03:23:11;;;;;;;8.63;3.55;;;10.70;94.40;;;;;;5053578;28;20493;-81
2021/05/27 03:25:37;;;;;;;10.00;2.92;;;10.70;94.40;;;;;;5053464;28;20451;-81
2021/05/27 03:28:03;;;;;;;7.88;3.20;;;10.70;94.40;;;;;;5054475;28;20045;-82
2021/05/27 03:30:29;;;;;;;7.88;3.10;;;10.70;94.40;;;;;;5054475;28;20064;-81
2021/05/27 03:32:55;;;;;;;8.05;3.00;;;10.70;94.40;;;;;;5053459;28;20059;-81
2021/05/27 03:35:21;;;;;;;6.53;3.13;;;10.70;94.40;;;;;;5053724;28;20080;-80
2021/05/27 03:37:46;;;;;;;7.25;2.88;;;10.70;94.40;;;;;;5054423;28;20091;-81
2021/05/27 03:40:13;;;;;;;5.88;2.80;;;10.70;94.30;;;;;;5053258;28;20060;-80
2021/05/27 03:42:41;;;;;;;8.05;2.80;;;10.70;94.20;;;;;;5054305;28;20568;-80
2021/05/27 03:45:09;;;;;;;6.97;2.50;;;10.70;94.40;;;;;;5053980;28;20045;-80
2021/05/27 03:47:35;;;;;;;6.70;2.97;;;10.70;94.40;;;;;;5053127;28;20040;-80
2021/05/27 03:50:01;;;;;;;8.05;2.65;;;10.70;94.50;;;;;;5053503;28;20056;-81
2021/05/27 03:52:26;;;;;;;7.25;3.00;;;10.70;94.50;;;;;;5053522;28;20045;-81
2021/05/27 03:54:52;;;;;;;6.47;2.85;;;10.60;94.50;;;;;;5053269;28;20056;-81
2021/05/27 03:57:18;;;;;;;6.05;2.70;;;10.70;94.50;;;;;;5053831;28;20477;-81
2021/05/27 04:02:29;;;;;;;6.32;2.50;;;10.60;94.50;;;;;;5053611;28;20500;-81
2021/05/27 04:07:39;;;;;;;5.90;2.47;;;10.60;94.50;;;;;;5052980;28;20475;-81
2021/05/27 04:10:06;;;;;;;5.57;2.55;;;10.60;94.50;;;;;;5053420;28;20053;-81
2021/05/27 04:12:47;;;;;;;8.13;2.75;;;10.60;94.60;;;;;;5053569;28;20484;-81
2021/05/27 04:18:01;;;;;;;5.70;2.60;;;10.60;94.50;;;;;;5053561;28;20049;-81
2021/05/27 04:20:30;;;;;;;9.48;3.10;;;10.60;94.50;;;;;;5052807;28;20053;-81
2021/05/27 04:22:56;;;;;;;6.47;2.72;;;10.60;94.60;;;;;;5053341;28;20044;-82
2021/05/27 04:25:24;;;;;;;8.52;3.17;;;10.60;94.60;;;;;;5053434;28;20053;-81
2021/05/27 04:27:51;;;;;;;7.32;2.97;;;10.60;94.60;;;;;;5052781;28;20045;-80
2021/05/27 04:30:20;;;;;;;9.20;3.08;;;10.60;94.60;;;;;;5053464;28;20049;-82
2021/05/27 04:33:06;;;;;;;6.88;2.88;;;10.60;94.70;;;;;;5053223;28;20049;-81
2021/05/27 04:35:37;;;;;;;9.68;3.17;;;10.60;94.70;;;;;;5052450;28;20084;-81
2021/05/27 04:38:15;;;;;;;8.30;2.70;;;10.50;94.70;;;;;;5052601;28;20393;-82
2021/05/27 04:40:47;;;;;;;6.50;2.78;;;10.60;94.70;;;;;;5053307;28;20053;-80
2021/05/27 04:43:14;;;;;;;8.55;3.10;;;10.50;94.70;;;;;;5052265;28;20041;-82
2021/05/27 04:45:40;;;;;;;8.15;3.00;;;10.50;94.70;;;;;;5052677;28;20341;-81
2021/05/27 04:48:10;;;;;;;8.07;2.90;;;10.50;94.70;;;;;;5052808;28;20044;-81
2021/05/27 04:50:37;;;;;;;7.13;3.00;;;10.50;94.70;;;;;;5052482;28;20055;-81
2021/05/27 04:53:03;;;;;;;7.93;2.55;;;10.50;94.70;;;;;;5052678;28;20048;-82
2021/05/27 04:55:30;;;;;;;8.07;3.03;;;10.50;94.70;;;;;;5052962;28;20048;-81
2021/05/27 04:57:56;;;;;;;6.63;2.90;;;10.60;94.80;;;;;;5051913;28;20408;-82
2021/05/27 05:00:23;;;;;;;9.65;2.85;;;10.50;94.70;;;;;;5052132;28;20049;-82
2021/05/27 05:02:51;;;;;;;12.43;2.97;;;10.50;94.70;;;;;;5051916;28;20049;-82
2021/05/27 05:05:17;;;;;;;8.73;2.97;;;10.50;94.70;;;;;;5052736;28;20048;-82
2021/05/27 05:07:43;;;;;;;10.77;2.72;;;10.50;94.80;;;;;;5052218;28;20565;-82
2021/05/27 05:10:10;;;;;;;10.70;3.25;;;10.50;94.80;;;;;;5051519;28;20118;-82
2021/05/27 05:12:46;;;;;;;9.10;3.08;;;10.50;94.90;;;;;;5052531;28;20370;-82
2021/05/27 05:15:29;;;;;;;7.28;2.70;;;10.50;94.90;;;;;;5051489;28;20132;-81
2021/05/27 05:17:58;;;;;;;7.93;3.10;;;10.50;94.90;;;;;;5050448;28;20095;-82
2021/05/27 05:20:28;;;;;;;6.22;2.60;;;10.50;94.90;;;;;;5052305;28;20049;-82
2021/05/27 05:22:55;;;;;;;10.20;3.20;;;10.50;94.90;;;;;;5052216;28;20194;-82
2021/05/27 05:25:21;;;;;;;11.20;3.35;;;10.50;94.90;;;;;;5051962;28;20088;-82
2021/05/27 05:27:47;;;;;;;10.35;3.40;;;10.50;94.90;;;;;;5052536;28;20128;-81
2021/05/27 05:30:14;;;;;;;8.55;2.83;;;10.50;94.90;;;;;;5052381;28;20132;-81
2021/05/27 05:32:41;;;;;;;9.82;3.35;;;10.50;94.90;;;;;;5051724;28;20094;-82
2021/05/27 05:35:09;;;;;;;9.45;3.40;;;10.50;94.90;;;;;;5052455;28;20057;-82
2021/05/27 05:37:35;;;;;;;7.32;3.10;;;10.50;94.90;;;;;;5047478;28;20045;-81
2021/05/27 05:40:02;;;;;;;12.77;3.63;;;10.50;94.90;;;;;;5050131;28;20045;-83
2021/05/27 05:42:28;;;;;;;8.43;3.42;;;10.50;94.90;;;;;;5048456;28;20044;-83
2021/05/27 05:44:54;;;;;;;11.98;3.60;;;10.50;95.00;;;;;;5050069;28;20053;-86
2021/05/27 05:47:19;;;;;;;9.80;4.03;;;10.60;95.30;;;;;;5052509;28;20053;-86
2021/05/27 05:49:45;;;;;;;13.82;4.68;;;10.50;95.00;;;;;;5052457;28;20048;-86
2021/05/27 05:52:12;;;;;;;12.57;3.97;;;10.50;95.00;;;;;;5051428;28;20143;-87
2021/05/27 05:54:38;;;;;;;10.00;4.28;;;10.50;95.00;;;;;;5051790;28;20114;-83
2021/05/27 05:57:04;;;;;;;9.93;4.22;;;10.50;95.00;;;;;;5051408;28;20057;-82
2021/05/27 05:59:30;;;;;;;14.75;4.03;;;10.50;95.10;;;;;;5051596;28;20053;-84
2021/05/27 06:01:55;;;;;;;12.75;3.80;;;10.50;95.10;;;;;;5049099;28;20068;-82
2021/05/27 06:04:21;;;;;;;12.27;4.32;;;10.50;95.10;;;;;;5051857;28;20053;-83
2021/05/27 06:06:47;;;;;;;13.30;4.75;;;10.50;95.10;;;;;;5039356;28;20561;-82
2021/05/27 06:09:13;;;;;;;12.18;4.40;;;10.60;95.20;;;;;;5048690;28;20135;-82
2021/05/27 06:11:38;;;;;;;14.75;4.70;;;10.60;95.20;;;;;;5051456;28;20071;-83
2021/05/27 06:14:04;;;;;;;14.93;4.80;;;10.60;95.20;;;;;;5050524;28;20114;-83
2021/05/27 06:16:30;;;;;;;13.00;4.10;;;10.60;95.10;;;;;;5051884;28;20103;-83
2021/05/27 06:18:55;;;;;;;15.90;4.47;;;10.60;95.10;;;;;;5052571;28;20040;-83
2021/05/27 06:21:21;;;;;;;15.15;4.35;;;10.60;95.10;;;;;;5054995;28;20397;-83
2021/05/27 06:23:47;;;;;;;12.95;4.75;;;10.60;95.10;;;;;;5055742;28;20099;-83
2021/05/27 06:26:13;;;;;;;14.43;4.43;;;10.60;95.10;;;;;;5055139;28;20068;-83
2021/05/27 06:28:39;;;;;;;12.18;3.95;;;10.60;95.10;;;;;;5054591;28;20524;-83
2021/05/27 06:31:04;;;;;;;15.38;4.38;;;10.60;95.00;;;;;;5055265;28;20140;-83
2021/05/27 06:33:31;;;;;;;11.55;4.30;;;10.60;95.00;;;;;;5055044;28;20052;-82
2021/05/27 06:35:58;;;;;;;15.82;4.95;;;10.60;95.00;;;;;;5048441;28;20053;-83
2021/05/27 06:38:23;;;;;;;17.95;5.20;;;10.60;95.00;;;;;;5054817;28;20374;-82
2021/05/27 06:40:49;;;;;;;11.70;4.55;;;10.60;95.00;;;;;;5052161;28;20135;-82
2021/05/27 06:43:14;;;;;;;16.42;4.85;;;10.60;95.00;;;;;;5053382;28;20044;-83
2021/05/27 06:45:40;;;;;;;16.73;5.05;;;10.60;95.00;;;;;;5055019;28;20049;-83
2021/05/27 06:48:06;;;;;;;14.40;4.80;;;10.60;95.00;;;;;;5054335;28;20052;-83
2021/05/27 06:50:33;;;;;;;14.07;4.88;;;10.70;95.00;;;;;;5055198;28;20072;-83
2021/05/27 06:53:00;;;;;;;12.13;4.30;;;10.60;95.00;;;;;;5054954;28;20040;-83
2021/05/27 06:55:26;;;;;;;13.98;5.45;;;10.60;95.00;;;;;;5054096;28;20049;-82
2021/05/27 06:57:52;;;;;;;14.45;4.95;;;10.60;95.10;;;;;;5054822;28;20469;-82
2021/05/27 07:00:20;;;;;;;17.25;4.97;;;10.70;95.10;;;;;;5055194;28;20048;-82
2021/05/27 07:02:47;;;;;;;15.75;5.50;;;10.70;95.20;;;;;;5053648;28;20053;-82
2021/05/27 07:05:13;;;;;;;14.52;5.10;;;10.70;95.20;;;;;;5054467;28;20496;-82
2021/05/27 07:07:40;;;;;;;16.40;5.25;;;10.70;95.20;;;;;;5054538;28;20045;-82
2021/05/27 07:10:06;;;;;;;16.20;5.32;;;10.70;95.20;;;;;;5053579;28;20057;-82
2021/05/27 07:12:33;;;;;;;15.35;5.22;;;10.70;95.30;;;;;;5054927;28;20068;-82
2021/05/27 07:14:59;;;;;;;13.18;5.07;;;10.70;95.30;;;;;;5054292;28;20048;-82
2021/05/27 07:17:24;;;;;;;12.68;4.53;;;10.70;95.30;;;;;;5054006;28;20096;-82
2021/05/27 07:19:52;;;;;;;12.85;4.60;;;10.70;95.30;;;;;;5054767;28;20052;-82
2021/05/27 07:22:17;;;;;;;10.52;4.50;;;10.70;95.30;;;;;;5054543;28;20045;-83
2021/05/27 07:24:44;;;;;;;11.85;4.55;;;10.70;95.30;;;;;;5053599;28;20163;-82
2021/05/27 07:27:10;;;;;;;10.80;4.07;;;10.70;95.30;;;;;;5053869;28;20037;-83
2021/05/27 07:29:35;;;;;;;12.02;4.38;;;10.80;95.30;;;;;;5054456;28;20051;-84
2021/05/27 07:32:01;;;;;;;10.05;4.05;;;10.80;95.30;;;;;;5052816;28;20041;-84
2021/05/27 07:34:28;;;;;;;14.05;4.38;;;10.80;95.30;;;;;;5054360;28;20412;-82
2021/05/27 07:36:53;;;;;;;12.43;4.20;;;10.80;95.40;;;;;;5053523;28;20140;-83
2021/05/27 07:39:19;;;;;;;14.02;4.53;;;10.90;95.30;;;;;;5052978;28;20147;-83
2021/05/27 07:41:44;;;;;;;12.10;4.32;;;10.90;95.30;;;;;;5054436;28;20481;-83
2021/05/27 07:44:10;;;;;;;9.70;4.30;;;10.90;95.30;;;;;;5054006;28;20049;-83
2021/05/27 07:46:36;;;;;;;11.13;4.38;;;11.00;95.30;;;;;;5053563;28;20502;-83
2021/05/27 07:49:01;;;;;;;15.13;4.60;;;11.00;95.40;;;;;;5053868;28;20053;-82
2021/05/27 07:51:27;;;;;;;12.60;4.30;;;11.00;95.40;;;;;;5053392;28;20381;-82
2021/05/27 07:53:52;;;;;;;11.77;4.40;;;11.00;95.40;;;;;;5053584;28;20102;-82
2021/05/27 07:56:18;;;;;;;8.75;3.80;;;11.00;95.30;;;;;;5054075;28;20067;-82
2021/05/27 07:58:44;;;;;;;10.75;4.53;;;11.10;95.30;;;;;;5052714;28;20056;-82
2021/05/27 08:01:09;;;;;;;9.00;3.90;;;11.10;95.30;;;;;;5053592;28;20063;-82
2021/05/27 08:03:35;;;;;;;11.63;4.63;;;11.10;95.30;;;;;;5053311;28;20044;-82
2021/05/27 08:06:03;;;;;;;8.20;3.75;;;11.10;95.30;;;;;;5043836;28;20053;-82
2021/05/27 08:08:29;;;;;;;11.15;4.05;;;11.10;95.30;;;;;;5053636;28;21288;-83
2021/05/27 08:10:54;;;;;;;8.57;3.65;;;11.20;95.40;;;;;;5053480;28;20107;-83
2021/05/27 08:13:20;;;;;;;11.18;3.40;;;11.20;95.30;;;;;;5052793;28;20049;-83
2021/05/27 08:15:46;;;;;;;10.43;3.28;;;11.20;95.20;;;;;;5053654;28;20080;-83
2021/05/27 08:18:11;;;;;;;8.82;3.15;;;11.20;95.10;;;;;;5053376;28;20139;-82
2021/05/27 08:20:37;;;;;;;8.38;3.40;;;11.20;95.00;;;;;;5052720;28;20143;-81
2021/05/27 08:23:03;;;;;;;8.95;2.83;;;11.20;95.00;;;;;;5053080;28;20106;-81
2021/05/27 08:25:29;;;;;;;7.97;2.80;;;11.20;95.10;;;;;;5053651;28;20116;-82
2021/05/27 08:27:55;;;;;;;10.75;2.97;;;11.20;95.00;;;;;;5052253;28;20048;-82
2021/05/27 08:30:21;;;;;;;10.13;3.17;;;11.20;95.10;;;;;;5053293;28;20053;-83
2021/05/27 08:32:47;;;;;;;11.30;2.88;;;11.20;95.00;;;;;;5053387;28;20049;-82
2021/05/27 08:35:13;;;;;;;12.75;2.95;;;11.30;95.10;;;;;;5051982;28;20053;-83
2021/05/27 08:37:38;;;;;;;12.27;3.28;;;11.30;95.10;;;;;;5053482;28;20126;-83
2021/05/27 08:40:04;;;;;;;12.15;3.13;;;11.30;95.20;;;;;;5052968;28;20087;-82
2021/05/27 08:42:31;;;;;;;11.90;3.00;;;11.40;95.20;;;;;;5051282;28;20455;-82
2021/05/27 08:44:58;;;;;;;9.82;2.90;;;11.50;95.10;;;;;;5052960;28;20135;-87
2021/05/27 08:47:24;;;;;;;13.35;3.42;;;11.50;95.00;;;;;;5053366;28;20120;-91
2021/05/27 08:49:51;;;;;;;12.90;3.25;;;11.50;95.00;;;;;;5034221;28;20524;-82
2021/05/27 08:52:17;;;;;;;12.13;2.95;;;11.60;95.00;;;;;;5053034;28;20392;-82
2021/05/27 08:54:43;;;;;;;11.15;3.10;;;11.60;95.00;;;;;;5052306;28;20052;-83
2021/05/27 08:57:09;;;;;;;13.18;2.95;;;11.70;95.00;;;;;;5052842;28;20098;-83
2021/05/27 08:59:35;;;;;;;9.45;3.13;;;11.70;94.90;;;;;;5053123;28;20148;-83
2021/05/27 09:02:07;;;;;;;9.48;2.47;;;11.70;94.90;;;;;;5051481;28;20080;-83
2021/05/27 09:04:34;;;;;;;14.43;2.97;;;11.80;94.80;;;;;;5052745;28;20050;-83
2021/05/27 09:07:02;;;;;;;11.38;3.08;;;11.80;94.60;;;;;;5052106;28;20481;-83
2021/05/27 09:09:55;;;;;;;16.83;3.13;;;11.80;94.50;;;;;;5052074;28;20152;-82
2021/05/27 09:12:24;;;;;;;12.63;3.15;;;11.90;94.50;;;;;;5052444;28;20045;-83
2021/05/27 09:14:50;;;;;;;14.68;2.90;;;11.90;94.50;;;;;;5052608;28;20496;-82
2021/05/27 09:17:15;;;;;;;12.45;2.65;;;11.90;94.50;;;;;;5050335;28;20064;-82
2021/05/27 09:19:41;;;;;;;14.45;3.03;;;11.90;94.50;;;;;;5032904;28;20497;-83
2021/05/27 09:22:20;;;;;;;13.23;2.92;;;11.90;94.50;;;;;;5032526;28;20103;-83
2021/05/27 09:24:47;;;;;;;10.82;2.60;;;11.90;94.40;;;;;;5031999;28;20408;-82
2021/05/27 09:27:13;;;;;;;14.10;2.75;;;11.90;94.40;;;;;;5032438;28;20045;-82
2021/05/27 09:29:45;;;;;;;14.00;3.03;;;11.90;94.30;;;;;;5035695;28;20389;-83
2021/05/27 09:32:11;;;;;;;10.82;3.10;;;12.00;94.30;;;;;;5051551;28;21183;-83
2021/05/27 09:34:43;;;;;;;15.30;3.05;;;12.00;94.30;;;;;;5052514;28;20155;-82
2021/05/27 09:37:29;;;;;;;13.60;2.80;;;12.00;94.30;;;;;;5050546;28;20045;-83
2021/05/27 09:39:55;;;;;;;10.57;2.53;;;12.10;94.40;;;;;;5051820;28;20052;-83
2021/05/27 09:42:21;;;;;;;12.80;2.35;;;12.10;94.30;;;;;;5051701;28;20087;-83
2021/05/27 09:44:47;;;;;;;16.38;2.72;;;12.20;94.00;;;;;;5051046;28;20468;-83
2021/05/27 09:47:13;;;;;;;11.82;2.67;;;12.20;93.90;;;;;;5052276;28;20049;-83
2021/05/27 09:49:59;;;;;;;12.35;2.53;;;12.30;93.80;;;;;;5052410;28;20477;-83
2021/05/27 09:52:26;;;;;;;12.88;2.60;;;12.30;93.60;;;;;;5051546;28;20117;-83
2021/05/27 09:54:55;;;;;;;10.23;2.53;;;12.30;93.60;;;;;;5054556;28;20053;-83
2021/05/27 09:57:25;;;;;;;10.68;2.53;;;12.30;93.40;;;;;;5056447;28;20409;-84
2021/05/27 09:59:52;;;;;;;9.82;2.58;;;12.30;93.30;;;;;;5055693;28;20045;-83
2021/05/27 10:02:19;;;;;;;13.95;2.95;;;12.30;93.20;;;;;;5055942;28;20102;-84
2021/05/27 10:04:57;;;;;;;13.60;2.40;;;12.30;93.20;;;;;;5056546;28;20064;-95
2021/05/27 10:07:44;;;;;;;13.30;2.60;;;12.30;93.20;;;;;;5056092;28;20045;-94
2021/05/27 10:10:11;;;;;;;16.65;3.03;;;12.30;93.30;;;;;;5055738;28;20049;-88
2021/05/27 10:12:41;;;;;;;18.92;2.90;;;12.30;93.30;;;;;;5054707;28;20049;-85
2021/05/27 10:15:10;;;;;;;10.63;2.50;;;12.30;93.20;;;;;;5054278;28;20053;-86
2021/05/27 10:17:37;;;;;;;13.43;2.60;;;12.40;93.20;;;;;;5056129;28;20124;-82
2021/05/27 10:20:05;;;;;;;10.45;2.70;;;12.30;93.00;;;;;;5054246;28;20045;-83
2021/05/27 10:22:33;;;;;;;9.55;2.28;;;12.30;93.00;;;;;;5054633;28;20140;-83
2021/05/27 10:25:01;;;;;;;12.05;2.55;;;12.40;93.20;;;;;;5055191;28;20056;-86
2021/05/27 10:27:26;;;;;;;11.30;2.60;;;12.40;93.20;;;;;;5048992;28;20056;-84
2021/05/27 10:29:52;;;;;;;13.88;2.78;;;12.40;93.00;;;;;;5054281;28;20444;-85
2021/05/27 10:32:19;;;;;;;13.13;2.53;;;12.50;93.00;;;;;;5054405;28;20139;-84
2021/05/27 10:34:48;;;;;;;10.52;2.53;;;12.50;92.90;;;;;;5054129;28;20053;-84
2021/05/27 10:37:38;;;;;;;13.65;2.70;;;12.50;92.80;;;;;;5052089;28;20052;-84
2021/05/27 10:40:19;;;;;;;10.85;2.30;;;12.50;92.60;;;;;;5054655;28;20049;-84
2021/05/27 10:42:57;;;;;;;9.38;2.20;;;12.50;92.50;;;;;;5055118;28;20049;-84
2021/05/27 10:45:24;;;;;;;9.82;2.17;;;12.60;92.50;;;;;;5049958;28;20049;-84
2021/05/27 10:48:12;;;;;;;7.70;2.00;;;12.60;92.60;;;;;;5049889;28;20053;-85
2021/05/27 10:50:50;;;;;;;10.05;2.10;;;12.60;92.60;;;;;;5046484;28;20041;-84
2021/05/27 10:53:34;;;;;;;11.05;2.00;;;12.60;92.50;;;;;;5054463;28;20041;-85
2021/05/27 10:56:01;;;;;;;9.25;2.00;;;12.70;92.60;;;;;;5051430;28;20041;-84
2021/05/27 10:58:46;;;;;;;8.60;2.15;;;12.70;92.70;;;;;;5052341;28;20075;-87
2021/05/27 11:01:32;;;;;;;8.80;2.33;;;12.70;92.50;;;;;;5053806;28;20588;-86
2021/05/27 11:04:06;;;;;;;10.05;2.00;;;12.70;92.40;;;;;;5034617;28;20456;-86
2021/05/27 11:06:39;;;;;;;9.80;1.75;;;12.80;92.50;;;;;;5052760;28;20056;-85
2021/05/27 11:09:16;;;;;;;9.40;1.85;;;12.80;92.50;;;;;;5053093;28;20382;-85
2021/05/27 11:11:47;;;;;;;10.52;2.10;;;12.90;92.60;;;;;;5050977;28;20064;-85
2021/05/27 11:14:35;;;;;;;9.75;2.05;;;12.90;92.60;;;;;;5052938;28;20051;-86
2021/05/27 11:17:03;;;;;;;9.90;2.30;;;12.90;92.40;;;;;;5050922;28;20049;-85
2021/05/27 11:20:04;;;;;;;8.43;1.85;;;13.00;92.40;;;;;;5053618;28;20122;-84
2021/05/27 11:22:31;;;;;;;8.25;1.98;;;13.00;92.30;;;;;;5041683;28;20159;-84
2021/05/27 11:25:15;;;;;;;11.40;2.17;;;13.00;92.50;;;;;;5051369;28;20623;-83
2021/05/27 11:27:53;;;;;;;15.75;2.28;;;13.00;92.60;;;;;;5053173;28;20507;-83
2021/05/27 11:30:24;;;;;;;11.25;2.22;;;13.00;92.50;;;;;;5052841;28;20106;-83
2021/05/27 11:32:54;;;;;;;11.90;2.20;;;13.00;92.50;;;;;;5051813;28;20139;-84
2021/05/27 11:35:21;;;;;;;12.15;2.38;;;13.00;92.20;;;;;;5054012;28;20508;-84
2021/05/27 11:37:49;;;;;;;8.80;2.00;;;13.00;91.90;;;;;;5050935;28;20094;-83
2021/05/27 11:40:17;;;;;;;11.98;2.25;;;13.00;92.10;;;;;;5050711;28;20053;-85
2021/05/27 11:42:51;;;;;;;10.80;2.28;;;13.10;92.30;;;;;;5053363;28;20111;-82
2021/05/27 11:45:18;;;;;;;10.50;2.33;;;13.10;92.40;;;;;;5053361;28;20049;-82
2021/05/27 11:48:22;;;;;;;10.75;2.00;;;13.10;92.40;;;;;;5052880;28;20167;-84
2021/05/27 11:50:51;;;;;;;13.75;2.60;;;13.20;92.10;;;;;;5042998;28;20076;-83
2021/05/27 11:53:20;;;;;;;12.00;2.20;;;13.20;92.10;;;;;;5053431;28;20053;-84
2021/05/27 11:55:57;;;;;;;16.17;2.42;;;13.20;92.10;;;;;;5053935;28;20052;-83
2021/05/27 11:58:36;;;;;;;10.75;2.38;;;13.20;91.60;;;;;;5053156;28;20065;-84
2021/05/27 12:01:26;;;;;;;10.45;2.10;;;13.30;91.60;;;;;;5053156;28;20045;-84
2021/05/27 12:04:17;;;;;;;12.98;1.90;;;13.30;91.50;;;;;;5033069;28;20054;-83
2021/05/27 12:06:46;;;;;;;6.32;1.25;;;13.30;91.40;;;;;;5048818;28;20488;-83
2021/05/27 12:09:20;;;;;;;7.38;1.52;;;13.30;91.60;;;;;;5052896;28;20049;-84
2021/05/27 12:11:47;;;;;;;5.15;1.42;;;13.40;91.80;;;;;;5047552;28;20396;-85
2021/05/27 12:14:13;;;;;;;6.15;1.50;;;13.30;91.70;;;;;;5053183;28;20057;-86
2021/05/27 12:16:39;;;;;;;7.38;1.38;;;13.30;91.30;;;;;;5049476;28;20083;-84
2021/05/27 12:19:07;;;;;;;5.40;1.40;;;13.20;91.60;;;;;;5045479;28;20068;-85
2021/05/27 12:21:33;;;;;;;5.80;1.60;;;13.20;91.80;;;;;;5049536;28;20075;-86
2021/05/27 12:23:59;;;;;;;9.80;1.83;;;13.20;91.70;;;;;;5052080;28;20055;-89
2021/05/27 12:26:25;;;;;;;9.50;2.10;;;13.20;91.60;;;;;;5051739;28;20397;-88
2021/05/27 12:28:53;;;;;;;6.93;1.77;;;13.20;91.90;;;;;;5048517;28;20045;-87
2021/05/27 12:31:20;;;;;;;7.68;2.00;;;13.20;92.20;;;;;;5048746;28;20049;-85
2021/05/27 12:33:46;;;;;;;7.35;1.90;;;13.20;92.20;;;;;;5050735;28;20049;-85
2021/05/27 12:36:12;;;;;;;8.90;1.90;;;13.30;92.10;;;;;;5051544;28;20053;-85
2021/05/27 12:38:47;;;;;;;5.90;1.73;;;13.30;92.10;;;;;;5051109;28;20072;-84
2021/05/27 12:41:13;;;;;;;11.15;2.17;;;13.30;91.80;;;;;;5049945;28;20049;-84
2021/05/27 12:43:42;;;;;;;9.20;2.10;;;13.30;92.00;;;;;;5052093;28;20058;-84
2021/05/27 12:46:10;;;;;;;7.13;1.77;;;13.30;92.10;;;;;;5048538;28;20488;-84
2021/05/27 12:48:57;;;;;;;9.63;2.17;;;13.30;92.10;;;;;;5047525;28;20102;-83
2021/05/27 12:51:26;;;;;;;8.30;2.08;;;13.20;92.20;;;;;;5052673;28;20132;-83
2021/05/27 12:53:53;;;;;;;9.05;2.20;;;13.20;92.40;;;;;;5051770;28;20071;-83